createdAt,value
2019-02-09T00:23:24.730Z,2.20
2019-02-09T00:28:47.969Z,1.87
2019-02-09T00:34:11.267Z,2.33
2019-02-09T00:39:22.642Z,2.20
2019-02-09T00:44:27.612Z,1.70
2019-02-09T00:49:51.367Z,1.80
2019-02-09T00:55:15.075Z,1.63
2019-02-09T01:00:38.388Z,1.80
2019-02-09T01:06:23.068Z,2.17
2019-02-09T01:11:46.392Z,1.90
2019-02-09T01:17:09.611Z,1.97
2019-02-09T01:22:13.922Z,1.90
2019-02-09T01:38:17.821Z,2.20
2019-02-09T01:43:22.087Z,1.83
2019-02-09T01:48:26.636Z,1.87
2019-02-09T02:09:37.858Z,1.80
2019-02-09T02:14:42.064Z,1.80
2019-02-09T02:25:08.281Z,2.17
2019-02-09T02:30:53.635Z,1.77
2019-02-09T02:35:58.142Z,1.83
2019-02-09T02:41:21.437Z,2.20
2019-02-09T02:46:25.659Z,1.50
2019-02-09T02:56:59.976Z,2.07
2019-02-09T03:02:05.734Z,2.10
2019-02-09T03:07:10.208Z,1.93
2019-02-09T03:12:14.504Z,1.60
2019-02-09T03:17:37.800Z,1.70
2019-02-09T03:22:42.193Z,1.93
2019-02-09T03:27:46.469Z,1.70
2019-02-09T03:33:09.802Z,1.30
2019-02-09T03:43:43.212Z,1.50
2019-02-09T03:48:50.139Z,1.17
2019-02-09T03:53:54.730Z,1.23
2019-02-09T03:59:00.920Z,0.97
2019-02-09T04:09:34.886Z,0.70
2019-02-09T04:14:58.186Z,0.80
2019-02-09T04:20:21.895Z,0.80
2019-02-09T04:25:26.339Z,0.67
2019-02-09T04:31:10.694Z,1.00
2019-02-09T04:36:15.352Z,0.80
2019-02-09T04:41:19.581Z,0.80
2019-02-09T04:46:24.099Z,0.73
2019-02-09T04:51:28.438Z,0.60
2019-02-09T04:56:32.670Z,0.80
2019-02-09T05:01:36.915Z,0.80
2019-02-09T05:11:50.699Z,1.10
2019-02-09T05:16:54.993Z,0.97
2019-02-09T05:21:59.221Z,1.00
2019-02-09T05:32:13.649Z,0.80
2019-02-09T05:37:17.880Z,0.87
2019-02-09T05:42:22.112Z,1.00
2019-02-09T05:47:26.388Z,1.30
2019-02-09T05:52:49.788Z,1.00
2019-02-09T05:57:54.041Z,1.10
2019-02-09T06:03:17.335Z,1.37
2019-02-09T06:08:21.566Z,1.00
2019-02-09T06:13:44.872Z,2.20
2019-02-09T06:18:49.472Z,1.37
2019-02-09T06:23:53.719Z,1.03
2019-02-09T06:28:57.999Z,1.10
2019-02-09T06:34:02.266Z,0.97
2019-02-09T06:39:47.484Z,1.00
2019-02-09T06:44:51.785Z,1.23
2019-02-09T06:49:56.148Z,1.20
2019-02-09T07:00:29.448Z,1.23
2019-02-09T07:05:33.678Z,0.87
2019-02-09T07:10:38.243Z,0.87
2019-02-09T07:16:01.616Z,1.60
2019-02-09T07:21:45.408Z,0.97
2019-02-09T07:26:49.677Z,1.20
2019-02-09T07:37:16.237Z,1.17
2019-02-09T07:48:09.697Z,0.60
2019-02-09T07:53:33.304Z,1.00
2019-02-09T07:58:56.641Z,1.30
2019-02-09T08:04:00.883Z,1.23
2019-02-09T08:09:24.183Z,1.17
2019-02-09T08:14:48.163Z,1.30
2019-02-09T08:19:54.194Z,1.47
2019-02-09T08:25:19.075Z,1.33
2019-02-09T08:31:03.891Z,1.30
2019-02-09T08:36:08.431Z,1.17
2019-02-09T08:46:22.951Z,1.70
2019-02-09T08:56:56.128Z,1.80
2019-02-09T09:02:00.393Z,1.50
2019-02-09T09:12:54.281Z,1.60
2019-02-09T09:17:58.621Z,1.83
2019-02-09T09:23:21.937Z,1.53
2019-02-09T09:28:26.233Z,1.57
2019-02-09T09:39:01.017Z,2.13
2019-02-09T09:44:16.859Z,1.97
2019-02-09T09:49:32.663Z,1.90
2019-02-09T09:54:37.084Z,2.27
2019-02-09T10:00:02.110Z,2.07
2019-02-09T10:05:46.670Z,2.03
2019-02-09T10:11:10.197Z,2.10
2019-02-09T10:16:33.505Z,2.30
2019-02-09T10:32:55.218Z,1.70
2019-02-09T10:38:18.532Z,2.07
2019-02-09T10:48:45.909Z,2.00
2019-02-09T10:54:01.787Z,2.30
2019-02-09T10:59:06.063Z,2.57
2019-02-09T11:04:49.719Z,2.73
2019-02-09T11:09:54.346Z,2.03
2019-02-09T11:15:18.296Z,2.30
2019-02-09T11:26:11.151Z,2.40
2019-02-09T11:36:44.377Z,6.90
2019-02-09T11:47:35.981Z,2.90
2019-02-09T11:52:51.555Z,5.17
2019-02-09T11:58:07.889Z,2.60
2019-02-09T12:03:14.915Z,2.20
2019-02-09T12:18:57.315Z,4.60
2019-02-09T12:24:20.747Z,3.53
2019-02-09T12:29:25.059Z,2.67
2019-02-09T12:34:48.535Z,3.27
2019-02-09T12:45:02.794Z,2.43
2019-02-09T12:50:07.532Z,2.57
2019-02-09T12:55:32.524Z,4.33
2019-02-09T13:00:37.938Z,2.63
2019-02-09T13:05:42.412Z,2.77
2019-02-09T13:10:46.758Z,2.50
2019-02-09T13:15:51.570Z,2.27
2019-02-09T13:20:56.236Z,3.10
2019-02-09T13:26:00.595Z,2.83
2019-02-09T13:31:05.035Z,2.33
2019-02-09T13:36:28.359Z,2.30
2019-02-09T13:41:51.646Z,2.43
2019-02-09T13:57:34.984Z,2.10
2019-02-09T14:07:49.324Z,2.33
2019-02-09T14:18:43.850Z,2.83
2019-02-09T14:29:18.008Z,2.60
2019-02-09T14:34:22.317Z,2.93
2019-02-09T14:39:45.589Z,2.23
2019-02-09T14:49:59.418Z,2.70
2019-02-09T14:55:03.884Z,2.30
2019-02-09T15:05:58.472Z,2.47
2019-02-09T15:11:02.733Z,2.80
2019-02-09T15:16:49.145Z,2.70
2019-02-09T15:21:53.516Z,1.97
2019-02-09T15:26:57.768Z,3.50
2019-02-09T15:32:02.010Z,2.90
2019-02-09T15:37:06.250Z,2.60
2019-02-09T15:53:28.490Z,2.80
2019-02-09T16:04:02.070Z,2.33
2019-02-09T16:09:47.346Z,2.37
2019-02-09T16:14:51.621Z,2.47
2019-02-09T16:19:55.858Z,2.40
2019-02-09T16:25:00.413Z,2.27
2019-02-09T16:30:24.407Z,2.10
2019-02-09T16:35:47.696Z,2.30
2019-02-09T16:40:51.987Z,3.03
2019-02-09T16:52:04.912Z,3.30
2019-02-09T17:02:38.354Z,2.47
2019-02-09T17:13:11.894Z,2.00
2019-02-09T17:18:35.507Z,1.83
2019-02-09T17:23:58.857Z,2.23
2019-02-09T17:34:32.593Z,2.60
2019-02-09T17:39:55.900Z,2.50
2019-02-09T17:45:00.204Z,2.43
2019-02-09T17:55:54.017Z,2.57
2019-02-09T18:06:35.676Z,2.10
2019-02-09T18:11:40.239Z,2.33
2019-02-09T18:22:33.012Z,2.80
2019-02-09T18:27:56.329Z,2.13
2019-02-09T18:33:01.588Z,2.20
2019-02-09T18:38:05.898Z,2.27
2019-02-09T18:48:59.535Z,1.93
2019-02-09T18:54:03.825Z,3.70
2019-02-09T18:59:27.385Z,2.30
2019-02-09T19:10:00.920Z,2.10
2019-02-09T19:15:45.860Z,2.67
2019-02-09T19:26:42.836Z,2.50
2019-02-09T19:36:57.368Z,2.00
2019-02-09T19:52:40.718Z,2.73
2019-02-09T19:57:44.956Z,2.00
2019-02-09T20:08:40.743Z,2.27
2019-02-09T20:13:45.026Z,2.20
2019-02-09T20:24:38.338Z,3.13
2019-02-09T20:29:42.657Z,2.40
2019-02-09T20:35:06.719Z,3.33
2019-02-09T20:40:53.637Z,4.27
2019-02-09T20:51:47.273Z,2.57
2019-02-09T20:57:10.609Z,3.70
2019-02-09T21:02:33.896Z,2.90
2019-02-09T21:07:38.152Z,4.67
2019-02-09T21:12:42.412Z,8.23
2019-02-09T21:28:45.440Z,4.10
2019-02-09T21:33:49.726Z,4.60
2019-02-09T21:39:13.306Z,3.70
2019-02-09T21:44:18.015Z,4.57
2019-02-09T21:54:51.453Z,6.63
2019-02-09T21:59:56.192Z,10.37
2019-02-09T22:05:00.844Z,3.50
2019-02-09T22:10:45.301Z,4.40
2019-02-09T22:15:49.607Z,3.50
2019-02-09T22:20:54.194Z,4.20
2019-02-09T22:25:58.477Z,4.10
2019-02-09T22:36:51.565Z,3.07
2019-02-09T22:42:15.106Z,3.40
2019-02-09T22:47:38.357Z,4.47
2019-02-09T22:52:42.601Z,3.33
2019-02-09T22:58:26.643Z,3.07
2019-02-09T23:03:52.480Z,3.57
2019-02-09T23:09:17.460Z,2.87
2019-02-09T23:14:41.128Z,3.83
2019-02-09T23:19:45.466Z,2.70
2019-02-09T23:24:49.706Z,3.20
2019-02-09T23:29:54.414Z,3.30
2019-02-09T23:34:59.349Z,3.23
2019-02-09T23:45:33.294Z,3.00
2019-02-09T23:50:48.989Z,3.07
2019-02-09T23:55:53.548Z,3.00
